createdAt,value
2023-03-21T00:01:54.798Z,84.84
2023-03-21T00:04:25.674Z,84.32
2023-03-21T00:06:55.830Z,83.99
2023-03-21T00:09:25.172Z,84.78
2023-03-21T00:11:54.764Z,85.17
2023-03-21T00:14:26.164Z,84.97
2023-03-21T00:16:57.634Z,85.49
2023-03-21T00:19:29.290Z,85.31
2023-03-21T00:22:07.845Z,85.36
2023-03-21T00:24:38.953Z,85.53
2023-03-21T00:27:41.384Z,85.51
2023-03-21T00:29:58.685Z,84.93
2023-03-21T00:32:29.693Z,85.36
2023-03-21T00:35:18.481Z,85.63
2023-03-21T00:37:48.712Z,85.44
2023-03-21T00:40:27.904Z,85.27
2023-03-21T00:43:00.828Z,85.75
2023-03-21T00:45:30.214Z,85.95
2023-03-21T00:48:01.352Z,85.79
2023-03-21T00:50:32.519Z,85.65
2023-03-21T00:53:02.311Z,85.38
2023-03-21T00:55:31.673Z,85.02
2023-03-21T00:58:02.596Z,84.88
2023-03-21T01:00:33.894Z,85.96
2023-03-21T01:03:21.252Z,84.71
2023-03-21T01:06:05.823Z,85.02
2023-03-21T01:08:51.033Z,85.03
2023-03-21T01:11:23.475Z,84.49
2023-03-21T01:13:57.819Z,85.34
2023-03-21T01:16:31.834Z,84.94
2023-03-21T01:19:06.927Z,85.99
2023-03-21T01:21:36.655Z,86.33
2023-03-21T01:24:06.921Z,85.72
2023-03-21T01:26:38.656Z,86.08
2023-03-21T01:29:08.383Z,85.25
2023-03-21T01:31:37.879Z,85.08
2023-03-21T01:34:11.286Z,85.03
2023-03-21T01:36:40.775Z,84.90
2023-03-21T01:39:15.235Z,84.39
2023-03-21T01:41:44.987Z,84.27
2023-03-21T01:44:23.242Z,84.58
2023-03-21T01:47:12.278Z,85.03
2023-03-21T01:49:53.787Z,85.38
2023-03-21T01:52:37.000Z,85.13
2023-03-21T01:55:14.031Z,85.77
2023-03-21T01:58:05.955Z,85.61
2023-03-21T02:00:51.417Z,85.58
2023-03-21T02:03:38.398Z,84.60
2023-03-21T02:06:39.886Z,84.37
2023-03-21T02:09:26.281Z,84.80
2023-03-21T02:11:56.932Z,84.89
2023-03-21T02:14:32.176Z,85.32
2023-03-21T02:17:16.882Z,84.51
2023-03-21T02:20:23.185Z,85.20
2023-03-21T02:23:56.720Z,85.44
2023-03-21T02:27:06.650Z,85.19
2023-03-21T02:30:05.748Z,84.33
2023-03-21T02:32:54.181Z,84.96
2023-03-21T02:35:51.868Z,83.99
2023-03-21T02:38:30.413Z,83.98
2023-03-21T02:41:16.473Z,84.28
2023-03-21T02:43:54.394Z,84.37
2023-03-21T02:46:42.962Z,84.25
2023-03-21T02:49:23.211Z,83.81
2023-03-21T02:51:54.801Z,83.40
2023-03-21T02:54:42.057Z,83.58
2023-03-21T02:57:20.540Z,83.91
2023-03-21T02:59:56.899Z,83.69
2023-03-21T03:02:35.549Z,82.97
2023-03-21T03:05:21.388Z,83.15
2023-03-21T03:08:11.337Z,83.38
2023-03-21T03:10:56.409Z,82.99
2023-03-21T03:13:46.001Z,83.12
2023-03-21T03:16:27.184Z,82.45
2023-03-21T03:18:59.465Z,82.29
2023-03-21T03:21:33.736Z,82.09
2023-03-21T03:24:07.271Z,81.36
2023-03-21T03:26:42.365Z,81.23
2023-03-21T03:29:17.939Z,81.67
2023-03-21T03:31:51.578Z,81.15
2023-03-21T03:34:26.420Z,81.41
2023-03-21T03:37:01.045Z,80.88
2023-03-21T03:39:37.130Z,80.98
2023-03-21T03:42:27.086Z,80.81
2023-03-21T03:45:04.564Z,80.57
2023-03-21T03:47:42.097Z,80.05
2023-03-21T03:50:27.441Z,80.16
2023-03-21T03:53:07.172Z,80.33
2023-03-21T03:55:40.648Z,80.18
2023-03-21T03:58:24.034Z,80.55
2023-03-21T04:00:58.368Z,81.24
2023-03-21T04:03:29.348Z,80.95
2023-03-21T04:06:00.502Z,81.61
2023-03-21T04:08:30.208Z,80.94
2023-03-21T04:11:02.753Z,80.58
2023-03-21T04:13:39.125Z,80.23
2023-03-21T04:16:14.684Z,80.53
2023-03-21T04:18:44.538Z,81.12
2023-03-21T04:21:14.990Z,80.54
2023-03-21T04:23:44.138Z,80.78
2023-03-21T04:26:13.798Z,81.27
2023-03-21T04:28:53.543Z,81.07
2023-03-21T04:31:27.396Z,81.91
2023-03-21T04:34:15.760Z,80.97
2023-03-21T04:36:50.928Z,81.41
2023-03-21T04:39:20.896Z,80.88
2023-03-21T04:41:52.530Z,80.58
2023-03-21T04:44:23.313Z,80.50
2023-03-21T04:46:53.839Z,80.48
2023-03-21T04:49:23.543Z,81.03
2023-03-21T04:51:53.200Z,80.50
2023-03-21T04:54:22.863Z,80.70
2023-03-21T04:56:52.937Z,80.31
2023-03-21T04:59:23.776Z,81.30
2023-03-21T05:01:56.933Z,80.86
2023-03-21T05:04:28.090Z,80.98
2023-03-21T05:06:59.387Z,80.71
2023-03-21T05:09:28.985Z,80.51
2023-03-21T05:11:59.022Z,81.13
2023-03-21T05:14:32.026Z,80.75
2023-03-21T05:17:05.252Z,80.76
2023-03-21T05:19:36.399Z,79.96
2023-03-21T05:22:10.567Z,80.58
2023-03-21T05:24:42.002Z,80.12
2023-03-21T05:27:34.110Z,79.50
2023-03-21T05:30:08.563Z,79.00
2023-03-21T05:32:38.854Z,79.52
2023-03-21T05:35:11.541Z,79.24
2023-03-21T05:37:41.560Z,79.07
2023-03-21T05:40:12.363Z,78.34
2023-03-21T05:42:47.152Z,78.02
2023-03-21T05:45:27.339Z,78.25
2023-03-21T05:47:58.246Z,77.75
2023-03-21T05:50:32.051Z,78.82
2023-03-21T05:53:23.262Z,77.80
2023-03-21T05:55:52.942Z,78.23
2023-03-21T05:58:41.319Z,77.68
2023-03-21T06:01:12.476Z,78.42
2023-03-21T06:03:46.134Z,77.83
2023-03-21T06:06:19.108Z,77.90
2023-03-21T06:08:59.797Z,77.83
2023-03-21T06:11:32.770Z,78.14
2023-03-21T06:14:22.933Z,77.64
2023-03-21T06:17:12.392Z,77.48
2023-03-21T06:19:49.216Z,77.82
2023-03-21T06:22:24.334Z,77.90
2023-03-21T06:24:54.034Z,78.44
2023-03-21T06:27:23.562Z,78.14
2023-03-21T06:29:58.973Z,78.18
2023-03-21T06:32:30.950Z,78.78
2023-03-21T06:35:09.809Z,78.73
2023-03-21T06:37:40.336Z,77.96
2023-03-21T06:40:11.388Z,79.11
2023-03-21T06:42:40.836Z,78.89
2023-03-21T06:45:13.774Z,78.30
2023-03-21T06:47:46.263Z,78.37
2023-03-21T06:50:30.053Z,78.13
2023-03-21T06:52:59.536Z,78.46
2023-03-21T06:55:31.898Z,78.87
2023-03-21T06:58:03.235Z,78.02
2023-03-21T07:00:33.250Z,78.05
2023-03-21T07:03:04.104Z,78.44
2023-03-21T07:05:39.449Z,77.66
2023-03-21T07:08:10.699Z,77.82
2023-03-21T07:10:43.802Z,77.47
2023-03-21T07:13:15.516Z,78.27
2023-03-21T07:15:49.560Z,77.82
2023-03-21T07:18:20.543Z,77.23
2023-03-21T07:20:52.402Z,77.04
2023-03-21T07:23:23.824Z,77.01
2023-03-21T07:25:54.626Z,77.04
2023-03-21T07:28:24.746Z,77.55
2023-03-21T07:30:56.785Z,77.15
2023-03-21T07:33:28.075Z,76.95
2023-03-21T07:36:03.252Z,76.86
2023-03-21T07:38:33.085Z,77.01
2023-03-21T07:41:02.811Z,76.99
2023-03-21T07:43:37.118Z,77.05
2023-03-21T07:46:12.190Z,77.40
2023-03-21T07:48:43.008Z,76.29
2023-03-21T07:51:12.720Z,76.02
2023-03-21T07:53:43.907Z,76.05
2023-03-21T07:56:13.576Z,76.84
2023-03-21T07:58:42.888Z,76.43
2023-03-21T08:01:12.554Z,76.67
2023-03-21T08:03:43.497Z,76.12
2023-03-21T08:06:13.309Z,76.29
2023-03-21T08:08:42.614Z,75.73
2023-03-21T08:11:14.471Z,76.14
2023-03-21T08:13:43.967Z,75.79
2023-03-21T08:16:13.680Z,75.27
2023-03-21T08:18:44.452Z,75.84
2023-03-21T08:21:14.142Z,75.90
2023-03-21T08:23:43.436Z,75.84
2023-03-21T08:26:18.496Z,74.92
2023-03-21T08:28:48.016Z,75.33
2023-03-21T08:31:18.163Z,74.88
2023-03-21T08:33:51.150Z,75.54
2023-03-21T08:36:21.209Z,75.53
2023-03-21T08:38:54.285Z,75.04
2023-03-21T08:41:26.035Z,75.44
2023-03-21T08:43:55.661Z,73.37
2023-03-21T08:46:25.389Z,73.50
2023-03-21T08:48:56.337Z,73.26
2023-03-21T08:51:26.086Z,73.08
2023-03-21T08:53:55.455Z,73.45
2023-03-21T08:56:25.214Z,72.70
2023-03-21T08:58:56.676Z,72.53
2023-03-21T09:01:26.391Z,72.57
2023-03-21T09:03:57.071Z,71.52
2023-03-21T09:06:27.633Z,71.25
2023-03-21T09:08:57.079Z,70.69
2023-03-21T09:11:27.073Z,70.90
2023-03-21T09:13:56.484Z,69.54
2023-03-21T09:16:26.240Z,69.32
2023-03-21T09:18:59.226Z,68.64
2023-03-21T09:21:29.941Z,68.37
2023-03-21T09:24:00.749Z,67.67
2023-03-21T09:26:31.361Z,67.91
2023-03-21T09:29:00.837Z,67.89
2023-03-21T09:31:31.050Z,68.13
2023-03-21T09:34:02.217Z,67.98
2023-03-21T09:36:35.085Z,67.95
2023-03-21T09:39:05.229Z,67.69
2023-03-21T09:41:50.381Z,67.78
2023-03-21T09:44:33.087Z,67.20
2023-03-21T09:47:10.380Z,67.32
2023-03-21T09:49:45.676Z,66.92
2023-03-21T09:52:21.252Z,67.13
2023-03-21T09:54:51.061Z,67.50
2023-03-21T09:57:31.900Z,67.51
2023-03-21T10:00:09.492Z,66.91
2023-03-21T10:02:47.292Z,68.45
2023-03-21T10:05:22.188Z,68.42
2023-03-21T10:07:58.298Z,66.98
2023-03-21T10:10:32.703Z,67.21
2023-03-21T10:13:03.803Z,67.17
2023-03-21T10:15:33.196Z,66.00
2023-03-21T10:18:06.152Z,65.73
2023-03-21T10:20:38.840Z,65.27
2023-03-21T10:23:14.064Z,63.58
2023-03-21T10:25:47.190Z,64.12
2023-03-21T10:28:19.602Z,64.06
2023-03-21T10:30:52.419Z,62.70
2023-03-21T10:33:25.190Z,63.53
2023-03-21T10:35:59.949Z,62.80
2023-03-21T10:38:30.761Z,62.66
2023-03-21T10:41:00.077Z,62.48
2023-03-21T10:43:37.935Z,62.56
2023-03-21T10:46:14.076Z,63.31
2023-03-21T10:48:47.529Z,63.29
2023-03-21T10:51:21.864Z,62.97
2023-03-21T10:53:57.169Z,62.02
2023-03-21T10:56:29.950Z,61.60
2023-03-21T10:59:01.575Z,61.36
2023-03-21T11:01:36.826Z,61.92
2023-03-21T11:04:11.370Z,60.88
2023-03-21T11:06:44.397Z,61.07
2023-03-21T11:09:19.904Z,61.13
2023-03-21T11:11:55.171Z,62.32
2023-03-21T11:14:34.406Z,61.45
2023-03-21T11:17:08.861Z,61.05
2023-03-21T11:19:39.146Z,58.65
2023-03-21T11:22:10.030Z,58.61
2023-03-21T11:24:40.722Z,57.99
2023-03-21T11:27:10.806Z,58.76
2023-03-21T11:29:42.810Z,58.83
2023-03-21T11:32:14.178Z,59.00
2023-03-21T11:34:48.730Z,59.08
2023-03-21T11:37:27.710Z,59.16
2023-03-21T11:40:06.916Z,59.36
2023-03-21T11:42:44.662Z,58.84
2023-03-21T11:45:17.378Z,58.73
2023-03-21T11:47:49.497Z,58.90
2023-03-21T11:50:28.855Z,59.31
2023-03-21T11:53:21.714Z,57.04
2023-03-21T11:56:01.970Z,58.23
2023-03-21T11:58:43.983Z,56.69
2023-03-21T12:01:23.126Z,57.99
2023-03-21T12:04:21.865Z,57.72
2023-03-21T12:06:57.558Z,57.37
2023-03-21T12:09:38.635Z,56.62
2023-03-21T12:12:24.489Z,56.90
2023-03-21T12:15:11.256Z,54.11
2023-03-21T12:17:51.865Z,55.42
2023-03-21T12:20:38.835Z,55.59
2023-03-21T12:23:29.589Z,55.82
2023-03-21T12:26:13.323Z,56.22
2023-03-21T12:28:54.924Z,56.08
2023-03-21T12:31:30.537Z,55.36
2023-03-21T12:34:11.432Z,55.96
2023-03-21T12:36:57.324Z,55.98
2023-03-21T12:39:31.798Z,55.87
2023-03-21T12:42:42.478Z,54.86
2023-03-21T12:45:17.810Z,55.83
2023-03-21T12:47:52.900Z,55.90
2023-03-21T12:50:28.480Z,55.02
2023-03-21T12:53:03.484Z,54.19
2023-03-21T12:55:38.187Z,53.84
2023-03-21T12:58:18.463Z,53.48
2023-03-21T13:00:52.373Z,53.61
2023-03-21T13:03:38.937Z,52.89
2023-03-21T13:06:12.917Z,52.60
2023-03-21T13:08:46.553Z,51.88
2023-03-21T13:11:19.422Z,50.58
2023-03-21T13:13:58.993Z,51.44
2023-03-21T13:16:34.237Z,52.25
2023-03-21T13:19:12.982Z,51.07
2023-03-21T13:21:52.307Z,54.44
2023-03-21T13:24:29.314Z,54.14
2023-03-21T13:27:04.268Z,55.94
2023-03-21T13:29:44.352Z,55.89
2023-03-21T13:32:24.335Z,56.91
2023-03-21T13:34:57.861Z,54.97
2023-03-21T13:37:32.437Z,55.23
2023-03-21T13:40:12.882Z,54.88
2023-03-21T13:42:46.829Z,55.43
2023-03-21T13:45:28.620Z,54.97
2023-03-21T13:47:59.951Z,54.53
2023-03-21T13:50:34.736Z,55.17
2023-03-21T13:53:27.482Z,54.09
2023-03-21T13:56:11.338Z,54.77
2023-03-21T13:59:00.165Z,55.60
2023-03-21T14:01:36.513Z,55.11
2023-03-21T14:04:15.561Z,55.65
2023-03-21T14:06:55.810Z,54.65
2023-03-21T14:09:31.204Z,55.70
2023-03-21T14:12:07.555Z,56.29
2023-03-21T14:14:41.925Z,55.32
2023-03-21T14:17:16.939Z,54.85
2023-03-21T14:19:46.659Z,56.77
2023-03-21T14:22:16.020Z,58.06
2023-03-21T14:24:50.915Z,56.26
2023-03-21T14:27:21.689Z,56.94
2023-03-21T14:29:53.523Z,56.82
2023-03-21T14:32:26.928Z,57.88
2023-03-21T14:34:59.210Z,57.87
2023-03-21T14:37:31.416Z,57.25
2023-03-21T14:40:03.387Z,57.92
2023-03-21T14:42:37.048Z,58.39
2023-03-21T14:45:21.954Z,57.78
2023-03-21T14:48:03.512Z,58.07
2023-03-21T14:50:43.160Z,58.65
2023-03-21T14:53:17.854Z,57.85
2023-03-21T14:56:00.175Z,58.41
2023-03-21T14:58:31.213Z,59.20
2023-03-21T15:01:05.927Z,58.24
2023-03-21T15:03:37.604Z,59.25
2023-03-21T15:06:13.347Z,59.96
2023-03-21T15:08:54.660Z,61.97
2023-03-21T15:11:32.316Z,61.61
2023-03-21T15:14:04.021Z,60.96
2023-03-21T15:16:34.318Z,59.94
2023-03-21T15:19:07.381Z,59.79
2023-03-21T15:21:39.744Z,61.86
2023-03-21T15:24:15.914Z,61.04
2023-03-21T15:26:48.100Z,61.51
2023-03-21T15:29:21.153Z,60.79
2023-03-21T15:31:52.275Z,60.72
2023-03-21T15:34:24.982Z,60.65
2023-03-21T15:36:59.840Z,60.53
2023-03-21T15:39:31.481Z,60.34
2023-03-21T15:42:03.876Z,60.55
2023-03-21T15:44:35.212Z,61.86
2023-03-21T15:47:05.017Z,62.04
2023-03-21T15:49:42.252Z,61.75
2023-03-21T15:52:17.695Z,61.89
2023-03-21T15:54:56.443Z,61.61
2023-03-21T15:57:32.980Z,62.13
2023-03-21T16:00:09.835Z,63.11
2023-03-21T16:02:44.328Z,64.86
2023-03-21T16:05:25.773Z,64.91
2023-03-21T16:07:59.236Z,63.30
2023-03-21T16:10:31.576Z,63.21
2023-03-21T16:13:01.561Z,62.58
2023-03-21T16:15:31.256Z,62.84
2023-03-21T16:18:03.666Z,62.90
2023-03-21T16:20:38.408Z,63.13
2023-03-21T16:23:08.191Z,63.30
2023-03-21T16:25:37.712Z,62.93
2023-03-21T16:28:11.749Z,63.37
2023-03-21T16:30:41.129Z,64.05
2023-03-21T16:33:13.376Z,63.74
2023-03-21T16:35:44.254Z,63.83
2023-03-21T16:38:15.139Z,63.93
2023-03-21T16:40:45.107Z,63.61
2023-03-21T16:43:14.506Z,64.00
2023-03-21T16:45:43.955Z,64.34
2023-03-21T16:48:16.685Z,64.71
2023-03-21T16:50:49.915Z,64.43
2023-03-21T16:53:19.606Z,64.47
2023-03-21T16:55:49.028Z,64.89
2023-03-21T16:58:18.807Z,65.11
2023-03-21T17:00:48.197Z,65.15
2023-03-21T17:03:19.592Z,64.94
2023-03-21T17:05:50.868Z,65.26
2023-03-21T17:08:21.965Z,65.14
2023-03-21T17:10:51.393Z,65.19
2023-03-21T17:13:20.997Z,65.59
2023-03-21T17:15:50.432Z,65.90
2023-03-21T17:18:20.594Z,67.83
2023-03-21T17:20:51.380Z,66.88
2023-03-21T17:23:21.208Z,66.66
2023-03-21T17:25:50.678Z,66.47
2023-03-21T17:28:20.361Z,66.42
2023-03-21T17:30:52.334Z,66.53
2023-03-21T17:33:22.107Z,67.08
2023-03-21T17:35:53.057Z,67.66
2023-03-21T17:38:23.071Z,67.65
2023-03-21T17:40:52.514Z,68.09
2023-03-21T17:43:23.457Z,68.01
2023-03-21T17:45:53.268Z,68.12
2023-03-21T17:48:23.063Z,67.93
2023-03-21T17:50:54.045Z,68.04
2023-03-21T17:53:24.141Z,68.03
2023-03-21T17:55:53.482Z,68.25
2023-03-21T17:58:23.113Z,68.52
2023-03-21T18:00:52.640Z,68.61
2023-03-21T18:03:22.269Z,69.01
2023-03-21T18:05:53.238Z,70.83
2023-03-21T18:08:23.212Z,69.43
2023-03-21T18:10:53.769Z,69.44
2023-03-21T18:13:23.841Z,69.82
2023-03-21T18:15:53.401Z,69.46
2023-03-21T18:18:23.519Z,69.79
2023-03-21T18:20:55.916Z,69.91
2023-03-21T18:23:30.078Z,70.01
2023-03-21T18:26:02.174Z,69.87
2023-03-21T18:28:33.588Z,70.14
2023-03-21T18:31:11.506Z,70.30
2023-03-21T18:33:47.388Z,72.41
2023-03-21T18:36:27.792Z,74.24
2023-03-21T18:38:59.252Z,73.28
2023-03-21T18:41:29.416Z,71.46
2023-03-21T18:44:02.855Z,71.23
2023-03-21T18:46:47.461Z,71.40
2023-03-21T18:50:02.105Z,71.53
2023-03-21T18:52:10.708Z,71.13
2023-03-21T18:54:41.876Z,72.05
2023-03-21T19:00:09.592Z,72.14
2023-03-21T19:02:45.496Z,74.07
2023-03-21T19:05:18.104Z,73.79
2023-03-21T19:07:49.662Z,74.02
2023-03-21T19:10:22.025Z,72.88
2023-03-21T19:12:54.799Z,74.22
2023-03-21T19:15:25.587Z,74.21
2023-03-21T19:20:47.005Z,74.27
2023-03-21T19:23:18.717Z,74.38
2023-03-21T19:25:52.636Z,75.71
2023-03-21T19:28:22.425Z,76.13
2023-03-21T19:30:52.330Z,76.35
2023-03-21T19:33:22.014Z,75.26
2023-03-21T19:36:10.824Z,76.26
2023-03-21T19:39:00.568Z,74.68
2023-03-21T19:41:32.683Z,74.22
2023-03-21T19:44:02.345Z,74.71
2023-03-21T19:46:32.181Z,74.76
2023-03-21T19:49:04.419Z,73.96
2023-03-21T19:51:34.951Z,75.01
2023-03-21T19:54:07.630Z,75.34
2023-03-21T19:56:37.791Z,75.36
2023-03-21T19:59:07.897Z,74.71
2023-03-21T20:01:37.419Z,73.62
2023-03-21T20:04:06.776Z,73.09
2023-03-21T20:06:36.921Z,73.12
2023-03-21T20:12:00.657Z,73.09
2023-03-21T20:14:30.240Z,72.88
2023-03-21T20:16:59.993Z,72.90
2023-03-21T20:19:29.449Z,72.68
2023-03-21T20:22:02.193Z,72.64
2023-03-21T20:24:33.845Z,73.14
2023-03-21T20:27:04.909Z,72.40
2023-03-21T20:30:08.777Z,72.44
2023-03-21T20:32:25.755Z,72.51
2023-03-21T20:35:07.268Z,72.59
2023-03-21T20:37:46.415Z,72.40
2023-03-21T20:40:18.739Z,72.35
2023-03-21T20:42:49.376Z,72.35
2023-03-21T20:45:19.366Z,71.97
2023-03-21T20:47:49.756Z,72.38
2023-03-21T20:50:22.042Z,72.31
2023-03-21T20:53:06.023Z,72.13
2023-03-21T20:55:38.173Z,72.69
2023-03-21T20:58:29.932Z,73.25
2023-03-21T21:01:20.870Z,72.52
2023-03-21T21:03:50.484Z,72.63
2023-03-21T21:06:21.482Z,72.63
2023-03-21T21:08:51.309Z,72.37
2023-03-21T21:14:11.389Z,72.59
2023-03-21T21:16:40.447Z,72.96
2023-03-21T21:19:09.971Z,72.93
2023-03-21T21:21:39.082Z,74.27
2023-03-21T21:24:09.549Z,74.13
2023-03-21T21:26:46.275Z,73.53
2023-03-21T21:29:16.956Z,73.98
2023-03-21T21:31:47.577Z,73.51
2023-03-21T21:34:18.136Z,73.71
2023-03-21T21:36:47.489Z,75.44
2023-03-21T21:39:16.820Z,77.02
2023-03-21T21:41:47.282Z,77.51
2023-03-21T21:44:19.315Z,77.37
2023-03-21T21:46:48.438Z,75.88
2023-03-21T21:49:17.749Z,75.80
2023-03-21T21:51:48.063Z,76.19
2023-03-21T21:54:18.630Z,75.74
2023-03-21T21:56:54.162Z,75.54
2023-03-21T21:59:24.513Z,74.85
2023-03-21T22:01:53.576Z,76.92
2023-03-21T22:04:27.642Z,75.76
2023-03-21T22:06:57.092Z,76.33
2023-03-21T22:09:26.436Z,75.43
2023-03-21T22:11:56.804Z,75.63
2023-03-21T22:14:26.257Z,74.67
2023-03-21T22:16:55.239Z,74.78
2023-03-21T22:19:24.633Z,75.36
2023-03-21T22:21:54.095Z,75.96
2023-03-21T22:24:23.422Z,76.84
2023-03-21T22:26:58.196Z,76.51
2023-03-21T22:29:29.816Z,76.02
2023-03-21T22:31:58.953Z,76.05
2023-03-21T22:34:28.771Z,75.52
2023-03-21T22:36:57.800Z,75.33
2023-03-21T22:39:28.647Z,79.35
2023-03-21T22:42:00.872Z,77.54
2023-03-21T22:44:34.995Z,78.39
2023-03-21T22:47:05.435Z,76.40
2023-03-21T22:49:34.998Z,76.56
2023-03-21T22:52:05.698Z,76.09
2023-03-21T22:54:35.316Z,77.02
2023-03-21T22:57:04.615Z,78.75
2023-03-21T22:59:35.387Z,80.16
2023-03-21T23:02:04.485Z,77.94
2023-03-21T23:04:34.012Z,77.17
2023-03-21T23:07:03.161Z,76.73
2023-03-21T23:09:32.655Z,77.19
2023-03-21T23:12:01.754Z,77.55
2023-03-21T23:14:31.128Z,79.07
2023-03-21T23:17:02.866Z,77.50
2023-03-21T23:19:32.343Z,79.67
2023-03-21T23:22:01.391Z,78.09
2023-03-21T23:24:30.745Z,79.15
2023-03-21T23:26:59.916Z,77.19
2023-03-21T23:29:29.254Z,78.05
2023-03-21T23:31:58.302Z,77.61
2023-03-21T23:34:29.060Z,78.24
2023-03-21T23:36:58.462Z,76.83
2023-03-21T23:39:28.396Z,76.45
2023-03-21T23:41:58.698Z,76.60
2023-03-21T23:44:28.332Z,77.45
2023-03-21T23:46:57.682Z,77.84
2023-03-21T23:49:29.078Z,78.53
2023-03-21T23:51:58.176Z,77.99
2023-03-21T23:54:27.604Z,76.96
2023-03-21T23:56:56.864Z,76.58
2023-03-21T23:59:27.609Z,76.57
